sensor_id;sensor_type;location;lat;lon;timestamp;pressure;altitude;pressure_sealevel;temperature;humidity
27294;BME280;14785;52.556;13.430;2023-03-20T00:00:44;100731.34;;;14.36;100.00
27294;BME280;14785;52.556;13.430;2023-03-20T00:03:11;100731.22;;;15.18;100.00
27294;BME280;14785;52.556;13.430;2023-03-20T00:05:37;100735.41;;;14.69;100.00
27294;BME280;14785;52.556;13.430;2023-03-20T00:08:03;100733.72;;;14.68;100.00
27294;BME280;14785;52.556;13.430;2023-03-20T00:10:40;100733.16;;;14.95;100.00
27294;BME280;14785;52.556;13.430;2023-03-20T00:13:07;100737.16;;;15.28;100.00
27294;BME280;14785;52.556;13.430;2023-03-20T00:15:38;100742.63;;;15.20;100.00
27294;BME280;14785;52.556;13.430;2023-03-20T00:18:17;100737.88;;;14.93;100.00
27294;BME280;14785;52.556;13.430;2023-03-20T00:20:46;100740.00;;;14.98;100.00
27294;BME280;14785;52.556;13.430;2023-03-20T00:23:13;100742.41;;;15.37;100.00
27294;BME280;14785;52.556;13.430;2023-03-20T00:25:39;100741.25;;;14.50;100.00
27294;BME280;14785;52.556;13.430;2023-03-20T00:28:27;100740.81;;;14.16;100.00
27294;BME280;14785;52.556;13.430;2023-03-20T00:30:55;100736.47;;;13.85;100.00
27294;BME280;14785;52.556;13.430;2023-03-20T00:33:20;100737.25;;;13.71;100.00
27294;BME280;14785;52.556;13.430;2023-03-20T00:35:47;100740.38;;;13.74;100.00
27294;BME280;14785;52.556;13.430;2023-03-20T00:38:12;100741.03;;;13.76;100.00
27294;BME280;14785;52.556;13.430;2023-03-20T00:40:37;100727.91;;;13.97;100.00
27294;BME280;14785;52.556;13.430;2023-03-20T00:43:03;100730.25;;;13.92;100.00
27294;BME280;14785;52.556;13.430;2023-03-20T00:45:30;100729.16;;;14.09;100.00
27294;BME280;14785;52.556;13.430;2023-03-20T00:47:56;100723.59;;;13.88;100.00
27294;BME280;14785;52.556;13.430;2023-03-20T00:50:28;100718.84;;;13.98;100.00
27294;BME280;14785;52.556;13.430;2023-03-20T00:52:55;100715.53;;;13.96;100.00
27294;BME280;14785;52.556;13.430;2023-03-20T00:55:24;100717.09;;;14.13;100.00
27294;BME280;14785;52.556;13.430;2023-03-20T00:57:53;100716.34;;;14.27;100.00
27294;BME280;14785;52.556;13.430;2023-03-20T01:00:21;100717.00;;;13.76;100.00
27294;BME280;14785;52.556;13.430;2023-03-20T01:02:48;100708.53;;;13.65;100.00
27294;BME280;14785;52.556;13.430;2023-03-20T01:05:15;100712.72;;;13.59;100.00
27294;BME280;14785;52.556;13.430;2023-03-20T01:07:41;100717.88;;;13.99;100.00
27294;BME280;14785;52.556;13.430;2023-03-20T01:10:07;100723.34;;;13.75;100.00
27294;BME280;14785;52.556;13.430;2023-03-20T01:12:32;100718.97;;;13.82;100.00
27294;BME280;14785;52.556;13.430;2023-03-20T01:14:58;100711.66;;;13.68;100.00
27294;BME280;14785;52.556;13.430;2023-03-20T01:17:25;100721.31;;;13.77;100.00
27294;BME280;14785;52.556;13.430;2023-03-20T01:19:52;100710.63;;;13.77;100.00
27294;BME280;14785;52.556;13.430;2023-03-20T01:22:18;100723.88;;;13.32;100.00
27294;BME280;14785;52.556;13.430;2023-03-20T01:24:44;100718.50;;;13.40;100.00
27294;BME280;14785;52.556;13.430;2023-03-20T01:27:18;100720.53;;;13.99;100.00
27294;BME280;14785;52.556;13.430;2023-03-20T01:29:45;100725.63;;;14.39;100.00
27294;BME280;14785;52.556;13.430;2023-03-20T01:32:12;100723.84;;;14.01;100.00
27294;BME280;14785;52.556;13.430;2023-03-20T01:34:38;100721.31;;;14.08;100.00
27294;BME280;14785;52.556;13.430;2023-03-20T01:37:08;100725.78;;;13.54;100.00
27294;BME280;14785;52.556;13.430;2023-03-20T01:39:36;100724.16;;;13.45;100.00
27294;BME280;14785;52.556;13.430;2023-03-20T01:42:02;100727.78;;;13.52;100.00
27294;BME280;14785;52.556;13.430;2023-03-20T01:44:33;100727.56;;;14.23;100.00
27294;BME280;14785;52.556;13.430;2023-03-20T01:47:00;100724.88;;;14.31;100.00
27294;BME280;14785;52.556;13.430;2023-03-20T01:51:54;100721.34;;;15.33;100.00
27294;BME280;14785;52.556;13.430;2023-03-20T01:54:27;100726.59;;;15.71;100.00
27294;BME280;14785;52.556;13.430;2023-03-20T01:57:09;100717.81;;;15.77;100.00
27294;BME280;14785;52.556;13.430;2023-03-20T01:59:44;100722.16;;;15.19;100.00
27294;BME280;14785;52.556;13.430;2023-03-20T02:02:14;100722.47;;;14.36;100.00
27294;BME280;14785;52.556;13.430;2023-03-20T02:04:42;100730.97;;;13.86;100.00
27294;BME280;14785;52.556;13.430;2023-03-20T02:07:09;100734.09;;;13.59;100.00
27294;BME280;14785;52.556;13.430;2023-03-20T02:09:36;100743.41;;;13.71;100.00
27294;BME280;14785;52.556;13.430;2023-03-20T02:12:01;100750.22;;;13.43;100.00
27294;BME280;14785;52.556;13.430;2023-03-20T02:14:27;100743.41;;;13.71;100.00
27294;BME280;14785;52.556;13.430;2023-03-20T02:16:53;100744.41;;;13.23;100.00
27294;BME280;14785;52.556;13.430;2023-03-20T02:19:34;100744.75;;;13.75;100.00
27294;BME280;14785;52.556;13.430;2023-03-20T02:27:38;100722.25;;;13.07;100.00
27294;BME280;14785;52.556;13.430;2023-03-20T02:46:02;100727.78;;;13.13;100.00
27294;BME280;14785;52.556;13.430;2023-03-20T02:54:16;100735.97;;;12.64;100.00
27294;BME280;14785;52.556;13.430;2023-03-20T02:57:07;100742.00;;;12.58;100.00
27294;BME280;14785;52.556;13.430;2023-03-20T03:00:48;100742.47;;;12.69;100.00
27294;BME280;14785;52.556;13.430;2023-03-20T03:03:12;100745.66;;;12.57;100.00
27294;BME280;14785;52.556;13.430;2023-03-20T03:05:49;100733.91;;;13.30;100.00
27294;BME280;14785;52.556;13.430;2023-03-20T03:08:18;100739.66;;;12.79;100.00
27294;BME280;14785;52.556;13.430;2023-03-20T03:11:07;100743.66;;;12.51;100.00
27294;BME280;14785;52.556;13.430;2023-03-20T03:13:41;100735.97;;;12.64;100.00
27294;BME280;14785;52.556;13.430;2023-03-20T03:16:15;100732.28;;;12.97;100.00
27294;BME280;14785;52.556;13.430;2023-03-20T03:18:42;100736.50;;;13.46;100.00
27294;BME280;14785;52.556;13.430;2023-03-20T03:21:10;100734.56;;;13.32;100.00
27294;BME280;14785;52.556;13.430;2023-03-20T03:23:47;100734.59;;;13.24;100.00
27294;BME280;14785;52.556;13.430;2023-03-20T03:26:20;100749.66;;;13.09;100.00
27294;BME280;14785;52.556;13.430;2023-03-20T03:28:59;100749.66;;;12.61;100.00
27294;BME280;14785;52.556;13.430;2023-03-20T03:31:27;100756.34;;;12.57;100.00
27294;BME280;14785;52.556;13.430;2023-03-20T03:33:55;100747.31;;;12.74;100.00
27294;BME280;14785;52.556;13.430;2023-03-20T03:36:35;100753.81;;;12.39;100.00
27294;BME280;14785;52.556;13.430;2023-03-20T03:47:44;100755.97;;;12.44;100.00
27294;BME280;14785;52.556;13.430;2023-03-20T03:52:43;100755.16;;;12.35;100.00
27294;BME280;14785;52.556;13.430;2023-03-20T03:55:14;100744.50;;;12.43;100.00
27294;BME280;14785;52.556;13.430;2023-03-20T03:57:51;100749.97;;;12.34;100.00
27294;BME280;14785;52.556;13.430;2023-03-20T04:00:20;100749.63;;;12.13;100.00
27294;BME280;14785;52.556;13.430;2023-03-20T04:02:52;100754.16;;;12.68;100.00
27294;BME280;14785;52.556;13.430;2023-03-20T04:05:18;100750.94;;;12.09;100.00
27294;BME280;14785;52.556;13.430;2023-03-20T04:07:46;100753.66;;;12.33;100.00
27294;BME280;14785;52.556;13.430;2023-03-20T04:10:13;100760.16;;;12.54;100.00
27294;BME280;14785;52.556;13.430;2023-03-20T04:12:41;100772.56;;;11.90;100.00
27294;BME280;14785;52.556;13.430;2023-03-20T04:15:08;100779.50;;;11.75;100.00
27294;BME280;14785;52.556;13.430;2023-03-20T04:17:34;100785.94;;;12.06;100.00
27294;BME280;14785;52.556;13.430;2023-03-20T04:19:59;100783.47;;;12.12;100.00
27294;BME280;14785;52.556;13.430;2023-03-20T04:22:25;100778.66;;;12.40;100.00
27294;BME280;14785;52.556;13.430;2023-03-20T04:24:50;100781.53;;;12.70;100.00
27294;BME280;14785;52.556;13.430;2023-03-20T04:27:17;100779.31;;;12.34;100.00
27294;BME280;14785;52.556;13.430;2023-03-20T04:29:42;100779.66;;;12.23;100.00
27294;BME280;14785;52.556;13.430;2023-03-20T04:32:09;100786.22;;;11.95;100.00
27294;BME280;14785;52.556;13.430;2023-03-20T04:34:34;100781.16;;;12.81;100.00
27294;BME280;14785;52.556;13.430;2023-03-20T04:37:00;100772.31;;;13.21;100.00
27294;BME280;14785;52.556;13.430;2023-03-20T04:39:26;100766.16;;;12.88;100.00
27294;BME280;14785;52.556;13.430;2023-03-20T04:41:52;100780.31;;;13.29;100.00
27294;BME280;14785;52.556;13.430;2023-03-20T04:44:17;100776.31;;;12.37;100.00
27294;BME280;14785;52.556;13.430;2023-03-20T04:46:42;100786.31;;;12.27;100.00
27294;BME280;14785;52.556;13.430;2023-03-20T04:49:08;100779.16;;;12.35;100.00
27294;BME280;14785;52.556;13.430;2023-03-20T04:51:33;100777.31;;;12.92;100.00
27294;BME280;14785;52.556;13.430;2023-03-20T04:53:59;100787.94;;;12.12;100.00
27294;BME280;14785;52.556;13.430;2023-03-20T04:56:24;100791.63;;;12.11;100.00
27294;BME280;14785;52.556;13.430;2023-03-20T04:58:50;100800.75;;;12.00;100.00
27294;BME280;14785;52.556;13.430;2023-03-20T05:01:15;100803.94;;;12.12;100.00
27294;BME280;14785;52.556;13.430;2023-03-20T05:03:41;100809.25;;;11.96;100.00
27294;BME280;14785;52.556;13.430;2023-03-20T05:06:07;100804.28;;;12.09;100.00
27294;BME280;14785;52.556;13.430;2023-03-20T05:08:32;100808.25;;;11.97;100.00
27294;BME280;14785;52.556;13.430;2023-03-20T05:10:57;100796.00;;;12.68;100.00
27294;BME280;14785;52.556;13.430;2023-03-20T05:13:23;100796.69;;;12.70;100.00
27294;BME280;14785;52.556;13.430;2023-03-20T05:15:48;100795.03;;;13.09;100.00
27294;BME280;14785;52.556;13.430;2023-03-20T05:18:14;100787.66;;;12.95;100.00
27294;BME280;14785;52.556;13.430;2023-03-20T05:20:39;100794.19;;;12.68;100.00
27294;BME280;14785;52.556;13.430;2023-03-20T05:23:05;100790.34;;;12.95;100.00
27294;BME280;14785;52.556;13.430;2023-03-20T05:25:31;100794.66;;;13.28;100.00
27294;BME280;14785;52.556;13.430;2023-03-20T05:27:57;100789.00;;;12.59;100.00
27294;BME280;14785;52.556;13.430;2023-03-20T05:30:22;100790.03;;;12.58;100.00
27294;BME280;14785;52.556;13.430;2023-03-20T05:32:51;100793.69;;;12.49;100.00
27294;BME280;14785;52.556;13.430;2023-03-20T05:35:17;100798.84;;;12.50;100.00
27294;BME280;14785;52.556;13.430;2023-03-20T05:37:42;100812.50;;;12.39;100.00
27294;BME280;14785;52.556;13.430;2023-03-20T05:40:11;100814.97;;;12.25;100.00
27294;BME280;14785;52.556;13.430;2023-03-20T05:42:37;100813.97;;;12.18;100.00
27294;BME280;14785;52.556;13.430;2023-03-20T05:45:03;100813.72;;;11.95;100.00
27294;BME280;14785;52.556;13.430;2023-03-20T05:47:28;100815.34;;;11.80;100.00
27294;BME280;14785;52.556;13.430;2023-03-20T05:49:54;100822.41;;;11.97;100.00
27294;BME280;14785;52.556;13.430;2023-03-20T05:52:19;100820.56;;;11.90;100.00
27294;BME280;14785;52.556;13.430;2023-03-20T05:54:45;100813.69;;;12.53;100.00
27294;BME280;14785;52.556;13.430;2023-03-20T05:57:11;100817.38;;;12.68;100.00
27294;BME280;14785;52.556;13.430;2023-03-20T05:59:37;100809.72;;;12.73;100.00
27294;BME280;14785;52.556;13.430;2023-03-20T06:02:03;100823.00;;;12.33;100.00
27294;BME280;14785;52.556;13.430;2023-03-20T06:04:28;100818.34;;;12.43;100.00
27294;BME280;14785;52.556;13.430;2023-03-20T06:06:54;100830.78;;;11.69;100.00
27294;BME280;14785;52.556;13.430;2023-03-20T06:09:20;100831.69;;;11.85;100.00
27294;BME280;14785;52.556;13.430;2023-03-20T06:11:45;100844.38;;;12.49;100.00
27294;BME280;14785;52.556;13.430;2023-03-20T06:14:11;100843.47;;;11.75;100.00
27294;BME280;14785;52.556;13.430;2023-03-20T06:16:38;100855.41;;;11.63;100.00
27294;BME280;14785;52.556;13.430;2023-03-20T06:19:03;100847.22;;;11.38;100.00
27294;BME280;14785;52.556;13.430;2023-03-20T06:21:29;100855.94;;;12.08;100.00
27294;BME280;14785;52.556;13.430;2023-03-20T06:23:55;100862.09;;;12.08;100.00
27294;BME280;14785;52.556;13.430;2023-03-20T06:26:22;100869.00;;;12.35;100.00
27294;BME280;14785;52.556;13.430;2023-03-20T06:28:48;100871.16;;;11.82;100.00
27294;BME280;14785;52.556;13.430;2023-03-20T06:31:13;100875.72;;;11.64;100.00
27294;BME280;14785;52.556;13.430;2023-03-20T06:33:39;100884.25;;;12.09;100.00
27294;BME280;14785;52.556;13.430;2023-03-20T06:36:07;100885.00;;;11.42;100.00
27294;BME280;14785;52.556;13.430;2023-03-20T06:38:34;100895.50;;;11.43;100.00
27294;BME280;14785;52.556;13.430;2023-03-20T06:41:00;100894.09;;;11.57;100.00
27294;BME280;14785;52.556;13.430;2023-03-20T06:43:25;100909.66;;;11.18;100.00
27294;BME280;14785;52.556;13.430;2023-03-20T06:45:51;100912.06;;;11.29;100.00
27294;BME280;14785;52.556;13.430;2023-03-20T06:48:16;100910.97;;;11.83;100.00
27294;BME280;14785;52.556;13.430;2023-03-20T06:50:49;100918.72;;;11.69;100.00
27294;BME280;14785;52.556;13.430;2023-03-20T06:53:14;100924.69;;;11.27;100.00
27294;BME280;14785;52.556;13.430;2023-03-20T06:55:42;100914.47;;;11.84;100.00
27294;BME280;14785;52.556;13.430;2023-03-20T06:58:07;100916.38;;;11.74;100.00
27294;BME280;14785;52.556;13.430;2023-03-20T07:00:33;100917.91;;;11.33;100.00
27294;BME280;14785;52.556;13.430;2023-03-20T07:02:58;100930.97;;;10.83;100.00
27294;BME280;14785;52.556;13.430;2023-03-20T07:05:24;100930.09;;;11.79;100.00
27294;BME280;14785;52.556;13.430;2023-03-20T07:07:50;100927.91;;;11.74;100.00
27294;BME280;14785;52.556;13.430;2023-03-20T07:10:17;100930.59;;;11.56;100.00
27294;BME280;14785;52.556;13.430;2023-03-20T07:12:43;100936.91;;;11.73;100.00
27294;BME280;14785;52.556;13.430;2023-03-20T07:15:09;100932.53;;;11.98;100.00
27294;BME280;14785;52.556;13.430;2023-03-20T07:17:36;100932.06;;;11.77;100.00
27294;BME280;14785;52.556;13.430;2023-03-20T07:20:03;100951.09;;;10.68;100.00
27294;BME280;14785;52.556;13.430;2023-03-20T07:22:29;100952.03;;;11.12;100.00
27294;BME280;14785;52.556;13.430;2023-03-20T07:24:56;100967.44;;;10.73;100.00
27294;BME280;14785;52.556;13.430;2023-03-20T07:27:22;100951.25;;;11.37;100.00
27294;BME280;14785;52.556;13.430;2023-03-20T07:29:47;100947.84;;;11.52;100.00
27294;BME280;14785;52.556;13.430;2023-03-20T07:32:13;100957.97;;;10.61;100.00
27294;BME280;14785;52.556;13.430;2023-03-20T07:34:38;100955.47;;;11.04;100.00
27294;BME280;14785;52.556;13.430;2023-03-20T07:37:04;100962.78;;;11.45;100.00
27294;BME280;14785;52.556;13.430;2023-03-20T07:39:30;100953.50;;;11.67;100.00
27294;BME280;14785;52.556;13.430;2023-03-20T07:41:56;100949.25;;;11.39;100.00
27294;BME280;14785;52.556;13.430;2023-03-20T07:44:21;100939.25;;;11.58;100.00
27294;BME280;14785;52.556;13.430;2023-03-20T07:46:47;100953.00;;;11.28;100.00
27294;BME280;14785;52.556;13.430;2023-03-20T07:49:13;100956.47;;;10.76;100.00
27294;BME280;14785;52.556;13.430;2023-03-20T07:51:39;100956.38;;;11.74;100.00
27294;BME280;14785;52.556;13.430;2023-03-20T07:54:08;100954.06;;;11.35;100.00
27294;BME280;14785;52.556;13.430;2023-03-20T07:56:33;100963.25;;;10.88;100.00
27294;BME280;14785;52.556;13.430;2023-03-20T07:58:59;100945.19;;;11.27;100.00
27294;BME280;14785;52.556;13.430;2023-03-20T08:01:24;100933.88;;;11.33;100.00
27294;BME280;14785;52.556;13.430;2023-03-20T08:03:51;100943.91;;;10.51;100.00
27294;BME280;14785;52.556;13.430;2023-03-20T08:06:18;100963.19;;;10.80;100.00
27294;BME280;14785;52.556;13.430;2023-03-20T08:08:44;100952.78;;;11.22;100.00
27294;BME280;14785;52.556;13.430;2023-03-20T08:11:10;100945.97;;;12.14;100.00
27294;BME280;14785;52.556;13.430;2023-03-20T08:13:35;100935.19;;;11.98;100.00
27294;BME280;14785;52.556;13.430;2023-03-20T08:16:02;100940.88;;;12.03;100.00
27294;BME280;14785;52.556;13.430;2023-03-20T08:18:28;100939.50;;;12.24;100.00
27294;BME280;14785;52.556;13.430;2023-03-20T08:20:53;100946.47;;;11.92;100.00
27294;BME280;14785;52.556;13.430;2023-03-20T08:23:19;100945.84;;;11.98;100.00
27294;BME280;14785;52.556;13.430;2023-03-20T08:25:50;100957.88;;;11.58;100.00
27294;BME280;14785;52.556;13.430;2023-03-20T08:28:16;100980.09;;;11.24;100.00
27294;BME280;14785;52.556;13.430;2023-03-20T08:30:43;100958.88;;;11.57;100.00
27294;BME280;14785;52.556;13.430;2023-03-20T08:33:09;100964.72;;;11.35;100.00
27294;BME280;14785;52.556;13.430;2023-03-20T08:35:34;100977.59;;;11.22;100.00
27294;BME280;14785;52.556;13.430;2023-03-20T08:38:00;100969.69;;;10.95;100.00
27294;BME280;14785;52.556;13.430;2023-03-20T08:40:26;100959.34;;;11.71;100.00
27294;BME280;14785;52.556;13.430;2023-03-20T08:42:52;100951.09;;;12.49;100.00
27294;BME280;14785;52.556;13.430;2023-03-20T08:45:19;100942.81;;;12.60;100.00
27294;BME280;14785;52.556;13.430;2023-03-20T08:47:52;100939.56;;;12.07;100.00
27294;BME280;14785;52.556;13.430;2023-03-20T08:50:17;100933.59;;;12.13;100.00
27294;BME280;14785;52.556;13.430;2023-03-20T08:52:43;100936.88;;;11.99;100.00
27294;BME280;14785;52.556;13.430;2023-03-20T08:55:14;100944.13;;;12.64;100.00
27294;BME280;14785;52.556;13.430;2023-03-20T08:57:41;100933.06;;;13.08;100.00
27294;BME280;14785;52.556;13.430;2023-03-20T09:00:08;100936.94;;;12.15;100.00
27294;BME280;14785;52.556;13.430;2023-03-20T09:02:37;100933.47;;;12.64;100.00
27294;BME280;14785;52.556;13.430;2023-03-20T09:05:02;100929.84;;;11.90;100.00
27294;BME280;14785;52.556;13.430;2023-03-20T09:07:28;100926.72;;;12.44;100.00
27294;BME280;14785;52.556;13.430;2023-03-20T09:09:54;100928.63;;;12.18;100.00
27294;BME280;14785;52.556;13.430;2023-03-20T09:12:20;100921.69;;;12.33;100.00
27294;BME280;14785;52.556;13.430;2023-03-20T09:14:47;100920.22;;;13.04;100.00
27294;BME280;14785;52.556;13.430;2023-03-20T09:17:13;100935.78;;;12.59;100.00
27294;BME280;14785;52.556;13.430;2023-03-20T09:19:38;100920.69;;;12.34;100.00
27294;BME280;14785;52.556;13.430;2023-03-20T09:22:06;100921.44;;;12.68;100.00
27294;BME280;14785;52.556;13.430;2023-03-20T09:24:32;100926.38;;;12.39;100.00
27294;BME280;14785;52.556;13.430;2023-03-20T09:26:58;100921.44;;;12.60;100.00
27294;BME280;14785;52.556;13.430;2023-03-20T09:29:26;100916.66;;;12.79;100.00
27294;BME280;14785;52.556;13.430;2023-03-20T09:31:54;100934.75;;;12.52;100.00
27294;BME280;14785;52.556;13.430;2023-03-20T09:34:20;100913.94;;;12.55;100.00
27294;BME280;14785;52.556;13.430;2023-03-20T09:36:46;100941.94;;;12.59;100.00
27294;BME280;14785;52.556;13.430;2023-03-20T09:39:11;100936.09;;;12.48;100.00
27294;BME280;14785;52.556;13.430;2023-03-20T09:41:37;100917.53;;;13.28;100.00
27294;BME280;14785;52.556;13.430;2023-03-20T09:53:39;100916.88;;;13.10;100.00
27294;BME280;14785;52.556;13.430;2023-03-20T09:55:46;100911.19;;;13.37;100.00
27294;BME280;14785;52.556;13.430;2023-03-20T09:58:24;100920.06;;;13.29;100.00
27294;BME280;14785;52.556;13.430;2023-03-20T10:00:55;100915.81;;;12.95;100.00
27294;BME280;14785;52.556;13.430;2023-03-20T10:03:31;100934.13;;;12.74;100.00
27294;BME280;14785;52.556;13.430;2023-03-20T10:05:59;100919.66;;;12.84;100.00
27294;BME280;14785;52.556;13.430;2023-03-20T10:08:31;100925.91;;;13.09;100.00
27294;BME280;14785;52.556;13.430;2023-03-20T10:11:27;100933.53;;;12.96;100.00
27294;BME280;14785;52.556;13.430;2023-03-20T10:14:01;100936.09;;;13.13;100.00
27294;BME280;14785;52.556;13.430;2023-03-20T10:19:15;100927.72;;;13.08;100.00
27294;BME280;14785;52.556;13.430;2023-03-20T10:21:50;100930.56;;;13.31;100.00
27294;BME280;14785;52.556;13.430;2023-03-20T10:24:35;100952.53;;;12.85;100.00
27294;BME280;14785;52.556;13.430;2023-03-20T10:27:13;100926.91;;;13.08;100.00
27294;BME280;14785;52.556;13.430;2023-03-20T10:40:41;100930.00;;;12.87;100.00
27294;BME280;14785;52.556;13.430;2023-03-20T10:43:31;100922.53;;;13.07;100.00
27294;BME280;14785;52.556;13.430;2023-03-20T10:48:48;100928.84;;;12.90;100.00
27294;BME280;14785;52.556;13.430;2023-03-20T10:51:17;100910.16;;;13.62;100.00
27294;BME280;14785;52.556;13.430;2023-03-20T10:54:03;100910.16;;;13.70;100.00
27294;BME280;14785;52.556;13.430;2023-03-20T10:59:03;100914.47;;;13.79;100.00
27294;BME280;14785;52.556;13.430;2023-03-20T11:01:31;100915.84;;;13.75;100.00
27294;BME280;14785;52.556;13.430;2023-03-20T11:03:57;100927.88;;;12.99;100.00
27294;BME280;14785;52.556;13.430;2023-03-20T11:06:30;100917.84;;;13.73;100.00
27294;BME280;14785;52.556;13.430;2023-03-20T11:09:09;100941.50;;;12.72;100.00
27294;BME280;14785;52.556;13.430;2023-03-20T11:11:35;100912.38;;;13.34;100.00
27294;BME280;14785;52.556;13.430;2023-03-20T11:14:20;100917.69;;;13.02;100.00
27294;BME280;14785;52.556;13.430;2023-03-20T11:16:52;100924.31;;;12.74;100.00
27294;BME280;14785;52.556;13.430;2023-03-20T11:19:19;100939.09;;;12.45;100.00
27294;BME280;14785;52.556;13.430;2023-03-20T11:21:57;100927.81;;;12.75;100.00
27294;BME280;14785;52.556;13.430;2023-03-20T11:24:42;100911.28;;;13.92;100.00
27294;BME280;14785;52.556;13.430;2023-03-20T11:27:15;100917.53;;;13.28;100.00
27294;BME280;14785;52.556;13.430;2023-03-20T11:29:42;100910.09;;;13.94;100.00
27294;BME280;14785;52.556;13.430;2023-03-20T11:37:52;100903.84;;;13.31;100.00
27294;BME280;14785;52.556;13.430;2023-03-20T11:40:32;100918.22;;;13.06;100.00
27294;BME280;14785;52.556;13.430;2023-03-20T11:45:33;100906.69;;;13.05;100.00
27294;BME280;14785;52.556;13.430;2023-03-20T11:47:59;100909.53;;;13.04;100.00
27294;BME280;14785;52.556;13.430;2023-03-20T11:52:59;100894.97;;;12.98;100.00
27294;BME280;14785;52.556;13.430;2023-03-20T11:55:27;100889.63;;;13.63;100.00
27294;BME280;14785;52.556;13.430;2023-03-20T11:58:02;100881.13;;;12.95;100.00
27294;BME280;14785;52.556;13.430;2023-03-20T12:00:40;100877.22;;;13.78;100.00
27294;BME280;14785;52.556;13.430;2023-03-20T12:06:12;100877.31;;;14.00;100.00
27294;BME280;14785;52.556;13.430;2023-03-20T12:08:40;100883.19;;;13.17;100.00
27294;BME280;14785;52.556;13.430;2023-03-20T12:14:13;100877.47;;;13.04;100.00
27294;BME280;14785;52.556;13.430;2023-03-20T12:16:41;100874.44;;;12.75;100.00
27294;BME280;14785;52.556;13.430;2023-03-20T12:19:14;100876.78;;;12.78;100.00
27294;BME280;14785;52.556;13.430;2023-03-20T12:22:06;100884.16;;;13.00;100.00
27294;BME280;14785;52.556;13.430;2023-03-20T12:24:41;100862.63;;;13.01;100.00
27294;BME280;14785;52.556;13.430;2023-03-20T12:27:24;100881.50;;;13.32;100.00
27294;BME280;14785;52.556;13.430;2023-03-20T12:30:03;100886.44;;;12.79;100.00
27294;BME280;14785;52.556;13.430;2023-03-20T12:32:55;100857.13;;;13.11;100.00
27294;BME280;14785;52.556;13.430;2023-03-20T12:35:27;100867.09;;;13.49;100.00
27294;BME280;14785;52.556;13.430;2023-03-20T12:37:54;100865.41;;;13.64;100.00
27294;BME280;14785;52.556;13.430;2023-03-20T12:40:21;100866.75;;;13.52;100.00
27294;BME280;14785;52.556;13.430;2023-03-20T12:43:14;100859.53;;;14.23;100.00
27294;BME280;14785;52.556;13.430;2023-03-20T12:45:49;100852.38;;;13.53;100.00
27294;BME280;14785;52.556;13.430;2023-03-20T12:51:49;100856.63;;;13.07;100.00
27294;BME280;14785;52.556;13.430;2023-03-20T12:59:44;100840.75;;;13.30;100.00
27294;BME280;14785;52.556;13.430;2023-03-20T13:10:25;100834.88;;;13.42;100.00
27294;BME280;14785;52.556;13.430;2023-03-20T13:13:05;100845.38;;;13.44;100.00
27294;BME280;14785;52.556;13.430;2023-03-20T13:16:00;100839.88;;;13.45;100.00
27294;BME280;14785;52.556;13.430;2023-03-20T13:21:09;100837.28;;;14.15;100.00
27294;BME280;14785;52.556;13.430;2023-03-20T13:24:20;100831.09;;;13.21;100.00
27294;BME280;14785;52.556;13.430;2023-03-20T13:37:41;100828.06;;;13.16;100.00
27294;BME280;14785;52.556;13.430;2023-03-20T13:40:21;100828.50;;;13.52;100.00
27294;BME280;14785;52.556;13.430;2023-03-20T13:42:53;100840.66;;;13.70;100.00
27294;BME280;14785;52.556;13.430;2023-03-20T13:45:38;100814.94;;;14.08;100.00
27294;BME280;14785;52.556;13.430;2023-03-20T13:53:54;100823.25;;;13.19;100.00
27294;BME280;14785;52.556;13.430;2023-03-20T13:56:42;100822.72;;;13.32;100.00
27294;BME280;14785;52.556;13.430;2023-03-20T14:02:11;100824.63;;;13.62;100.00
27294;BME280;14785;52.556;13.430;2023-03-20T14:04:42;100826.75;;;13.12;100.00
27294;BME280;14785;52.556;13.430;2023-03-20T14:07:35;100819.06;;;13.17;100.00
27294;BME280;14785;52.556;13.430;2023-03-20T14:12:58;100819.16;;;13.94;100.00
27294;BME280;14785;52.556;13.430;2023-03-20T14:15:35;100825.81;;;13.60;100.00
27294;BME280;14785;52.556;13.430;2023-03-20T14:18:10;100823.75;;;13.23;100.00
27294;BME280;14785;52.556;13.430;2023-03-20T14:20:39;100820.56;;;13.82;100.00
27294;BME280;14785;52.556;13.430;2023-03-20T14:23:16;100806.59;;;13.64;100.00
27294;BME280;14785;52.556;13.430;2023-03-20T14:25:42;100815.47;;;13.95;100.00
27294;BME280;14785;52.556;13.430;2023-03-20T14:30:45;100804.03;;;13.32;100.00
27294;BME280;14785;52.556;13.430;2023-03-20T14:35:43;100814.41;;;13.03;100.00
27294;BME280;14785;52.556;13.430;2023-03-20T14:41:03;100812.38;;;13.13;100.00
27294;BME280;14785;52.556;13.430;2023-03-20T14:46:42;100809.63;;;13.53;100.00
27294;BME280;14785;52.556;13.430;2023-03-20T14:52:25;100803.88;;;12.85;100.00
27294;BME280;14785;52.556;13.430;2023-03-20T14:54:54;100809.66;;;13.45;100.00
27294;BME280;14785;52.556;13.430;2023-03-20T14:57:31;100794.19;;;13.71;100.00
27294;BME280;14785;52.556;13.430;2023-03-20T14:59:58;100797.78;;;13.94;100.00
27294;BME280;14785;52.556;13.430;2023-03-20T15:02:29;100789.84;;;14.09;100.00
27294;BME280;14785;52.556;13.430;2023-03-20T15:04:58;100807.00;;;13.84;100.00